sensor_id;sensor_type;location;lat;lon;timestamp;P1;durP1;ratioP1;P2;durP2;ratioP2
5987;SDS011;3021;51.000;6.980;2023-05-10T00:01:41;28.25;;;13.05;;
5987;SDS011;3021;51.000;6.980;2023-05-10T00:04:07;21.15;;;12.88;;
5987;SDS011;3021;51.000;6.980;2023-05-10T00:06:32;26.15;;;12.63;;
5987;SDS011;3021;51.000;6.980;2023-05-10T00:08:58;24.70;;;12.40;;
5987;SDS011;3021;51.000;6.980;2023-05-10T00:11:23;23.95;;;12.00;;
5987;SDS011;3021;51.000;6.980;2023-05-10T00:13:48;25.75;;;12.00;;
5987;SDS011;3021;51.000;6.980;2023-05-10T00:16:14;23.38;;;11.82;;
5987;SDS011;3021;51.000;6.980;2023-05-10T00:18:39;23.55;;;12.15;;
5987;SDS011;3021;51.000;6.980;2023-05-10T00:21:05;24.45;;;11.57;;
5987;SDS011;3021;51.000;6.980;2023-05-10T00:23:31;23.77;;;11.50;;
5987;SDS011;3021;51.000;6.980;2023-05-10T00:25:56;27.10;;;12.80;;
5987;SDS011;3021;51.000;6.980;2023-05-10T00:28:22;26.42;;;11.77;;
5987;SDS011;3021;51.000;6.980;2023-05-10T00:30:47;26.48;;;11.95;;
5987;SDS011;3021;51.000;6.980;2023-05-10T00:33:13;22.13;;;12.00;;
5987;SDS011;3021;51.000;6.980;2023-05-10T00:35:38;20.52;;;10.63;;
5987;SDS011;3021;51.000;6.980;2023-05-10T00:38:03;20.75;;;11.88;;
5987;SDS011;3021;51.000;6.980;2023-05-10T00:40:29;20.38;;;10.98;;
5987;SDS011;3021;51.000;6.980;2023-05-10T00:42:55;19.40;;;11.75;;
5987;SDS011;3021;51.000;6.980;2023-05-10T00:45:21;24.05;;;11.52;;
5987;SDS011;3021;51.000;6.980;2023-05-10T00:47:46;29.13;;;11.82;;
5987;SDS011;3021;51.000;6.980;2023-05-10T00:50:12;24.40;;;12.25;;
5987;SDS011;3021;51.000;6.980;2023-05-10T00:52:38;21.60;;;10.88;;
5987;SDS011;3021;51.000;6.980;2023-05-10T00:55:04;22.40;;;12.23;;
5987;SDS011;3021;51.000;6.980;2023-05-10T00:57:30;24.40;;;12.35;;
5987;SDS011;3021;51.000;6.980;2023-05-10T00:59:56;23.33;;;12.07;;
5987;SDS011;3021;51.000;6.980;2023-05-10T01:02:23;22.95;;;12.77;;
5987;SDS011;3021;51.000;6.980;2023-05-10T01:04:49;25.30;;;13.40;;
5987;SDS011;3021;51.000;6.980;2023-05-10T01:07:14;25.20;;;13.55;;
5987;SDS011;3021;51.000;6.980;2023-05-10T01:09:39;29.05;;;14.15;;
5987;SDS011;3021;51.000;6.980;2023-05-10T01:12:05;29.75;;;14.35;;
5987;SDS011;3021;51.000;6.980;2023-05-10T01:14:32;26.45;;;14.50;;
5987;SDS011;3021;51.000;6.980;2023-05-10T01:16:59;30.33;;;14.60;;
5987;SDS011;3021;51.000;6.980;2023-05-10T01:19:26;30.13;;;14.75;;
5987;SDS011;3021;51.000;6.980;2023-05-10T01:32:48;32.70;;;15.80;;
5987;SDS011;3021;51.000;6.980;2023-05-10T01:35:37;43.00;;;17.20;;
5987;SDS011;3021;51.000;6.980;2023-05-10T01:41:30;24.65;;;13.43;;
5987;SDS011;3021;51.000;6.980;2023-05-10T01:47:05;26.67;;;12.90;;
5987;SDS011;3021;51.000;6.980;2023-05-10T01:49:37;27.90;;;13.45;;
5987;SDS011;3021;51.000;6.980;2023-05-10T01:52:08;21.17;;;10.77;;
5987;SDS011;3021;51.000;6.980;2023-05-10T01:54:38;14.52;;;9.48;;
5987;SDS011;3021;51.000;6.980;2023-05-10T01:57:07;13.70;;;8.60;;
5987;SDS011;3021;51.000;6.980;2023-05-10T01:59:37;14.23;;;8.48;;
5987;SDS011;3021;51.000;6.980;2023-05-10T02:02:06;13.32;;;8.10;;
5987;SDS011;3021;51.000;6.980;2023-05-10T02:04:33;15.30;;;7.88;;
5987;SDS011;3021;51.000;6.980;2023-05-10T02:07:02;12.88;;;7.20;;
5987;SDS011;3021;51.000;6.980;2023-05-10T02:09:28;15.00;;;8.00;;
5987;SDS011;3021;51.000;6.980;2023-05-10T02:11:57;14.30;;;7.93;;
5987;SDS011;3021;51.000;6.980;2023-05-10T02:14:24;12.75;;;7.22;;
5987;SDS011;3021;51.000;6.980;2023-05-10T02:16:51;13.07;;;7.28;;
5987;SDS011;3021;51.000;6.980;2023-05-10T02:19:18;14.52;;;7.82;;
5987;SDS011;3021;51.000;6.980;2023-05-10T02:21:44;13.55;;;8.10;;
5987;SDS011;3021;51.000;6.980;2023-05-10T02:24:11;12.98;;;7.95;;
5987;SDS011;3021;51.000;6.980;2023-05-10T02:26:37;17.15;;;8.30;;
5987;SDS011;3021;51.000;6.980;2023-05-10T02:29:03;16.90;;;8.45;;
5987;SDS011;3021;51.000;6.980;2023-05-10T02:31:32;17.20;;;8.93;;
5987;SDS011;3021;51.000;6.980;2023-05-10T02:33:58;15.07;;;9.18;;
5987;SDS011;3021;51.000;6.980;2023-05-10T02:36:25;13.48;;;7.60;;
5987;SDS011;3021;51.000;6.980;2023-05-10T02:38:52;15.68;;;8.07;;
5987;SDS011;3021;51.000;6.980;2023-05-10T02:41:19;18.13;;;7.95;;
5987;SDS011;3021;51.000;6.980;2023-05-10T02:43:47;13.23;;;8.38;;
5987;SDS011;3021;51.000;6.980;2023-05-10T02:46:16;14.80;;;7.70;;
5987;SDS011;3021;51.000;6.980;2023-05-10T02:48:41;13.70;;;8.13;;
5987;SDS011;3021;51.000;6.980;2023-05-10T02:51:07;12.85;;;7.07;;
5987;SDS011;3021;51.000;6.980;2023-05-10T02:53:34;12.95;;;7.65;;
5987;SDS011;3021;51.000;6.980;2023-05-10T02:56:11;15.82;;;8.43;;
5987;SDS011;3021;51.000;6.980;2023-05-10T02:58:44;15.15;;;7.53;;
5987;SDS011;3021;51.000;6.980;2023-05-10T03:01:11;16.92;;;8.73;;
5987;SDS011;3021;51.000;6.980;2023-05-10T03:03:36;20.13;;;8.40;;
5987;SDS011;3021;51.000;6.980;2023-05-10T03:06:01;25.45;;;9.75;;
5987;SDS011;3021;51.000;6.980;2023-05-10T03:08:27;17.27;;;8.57;;
5987;SDS011;3021;51.000;6.980;2023-05-10T03:10:55;19.88;;;10.27;;
5987;SDS011;3021;51.000;6.980;2023-05-10T03:13:35;19.20;;;10.95;;
5987;SDS011;3021;51.000;6.980;2023-05-10T03:16:10;20.30;;;10.70;;
5987;SDS011;3021;51.000;6.980;2023-05-10T03:21:25;17.35;;;10.23;;
5987;SDS011;3021;51.000;6.980;2023-05-10T03:23:58;20.05;;;10.60;;
5987;SDS011;3021;51.000;6.980;2023-05-10T03:26:27;19.58;;;9.98;;
5987;SDS011;3021;51.000;6.980;2023-05-10T03:28:53;28.85;;;11.60;;
5987;SDS011;3021;51.000;6.980;2023-05-10T03:31:20;17.33;;;9.70;;
5987;SDS011;3021;51.000;6.980;2023-05-10T03:33:46;22.15;;;11.18;;
5987;SDS011;3021;51.000;6.980;2023-05-10T03:36:12;25.63;;;12.27;;
5987;SDS011;3021;51.000;6.980;2023-05-10T03:38:38;22.60;;;12.15;;
5987;SDS011;3021;51.000;6.980;2023-05-10T03:41:04;20.33;;;11.15;;
5987;SDS011;3021;51.000;6.980;2023-05-10T03:43:29;20.85;;;10.77;;
5987;SDS011;3021;51.000;6.980;2023-05-10T03:45:54;23.92;;;12.02;;
5987;SDS011;3021;51.000;6.980;2023-05-10T03:48:19;23.33;;;12.32;;
5987;SDS011;3021;51.000;6.980;2023-05-10T03:50:45;23.55;;;11.63;;
5987;SDS011;3021;51.000;6.980;2023-05-10T03:53:10;25.50;;;11.82;;
5987;SDS011;3021;51.000;6.980;2023-05-10T03:55:36;23.38;;;11.35;;
5987;SDS011;3021;51.000;6.980;2023-05-10T03:58:01;20.77;;;11.15;;
5987;SDS011;3021;51.000;6.980;2023-05-10T04:00:26;24.50;;;12.25;;
5987;SDS011;3021;51.000;6.980;2023-05-10T04:02:52;20.58;;;11.70;;
5987;SDS011;3021;51.000;6.980;2023-05-10T04:05:17;24.77;;;11.82;;
5987;SDS011;3021;51.000;6.980;2023-05-10T04:07:42;18.52;;;11.60;;
5987;SDS011;3021;51.000;6.980;2023-05-10T04:10:09;22.33;;;11.48;;
5987;SDS011;3021;51.000;6.980;2023-05-10T04:12:34;20.08;;;10.73;;
5987;SDS011;3021;51.000;6.980;2023-05-10T04:15:00;25.63;;;12.43;;
5987;SDS011;3021;51.000;6.980;2023-05-10T04:17:26;26.65;;;10.73;;
5987;SDS011;3021;51.000;6.980;2023-05-10T04:19:51;32.65;;;11.48;;
5987;SDS011;3021;51.000;6.980;2023-05-10T04:22:19;35.83;;;12.45;;
5987;SDS011;3021;51.000;6.980;2023-05-10T04:24:45;29.45;;;13.18;;
5987;SDS011;3021;51.000;6.980;2023-05-10T04:27:10;34.30;;;14.65;;
5987;SDS011;3021;51.000;6.980;2023-05-10T04:29:36;33.85;;;14.65;;
5987;SDS011;3021;51.000;6.980;2023-05-10T04:32:02;31.92;;;15.60;;
5987;SDS011;3021;51.000;6.980;2023-05-10T04:34:28;31.63;;;15.68;;
5987;SDS011;3021;51.000;6.980;2023-05-10T04:36:54;40.00;;;16.13;;
5987;SDS011;3021;51.000;6.980;2023-05-10T04:39:19;34.70;;;17.42;;
5987;SDS011;3021;51.000;6.980;2023-05-10T04:41:45;41.85;;;17.95;;
5987;SDS011;3021;51.000;6.980;2023-05-10T04:44:10;44.17;;;17.63;;
5987;SDS011;3021;51.000;6.980;2023-05-10T04:46:35;46.60;;;18.05;;
5987;SDS011;3021;51.000;6.980;2023-05-10T04:49:01;47.20;;;18.13;;
5987;SDS011;3021;51.000;6.980;2023-05-10T04:51:26;38.78;;;18.30;;
5987;SDS011;3021;51.000;6.980;2023-05-10T04:53:51;36.85;;;19.10;;
5987;SDS011;3021;51.000;6.980;2023-05-10T04:56:17;51.45;;;21.67;;
5987;SDS011;3021;51.000;6.980;2023-05-10T04:58:42;56.90;;;20.90;;
5987;SDS011;3021;51.000;6.980;2023-05-10T05:01:08;49.97;;;21.33;;
5987;SDS011;3021;51.000;6.980;2023-05-10T05:03:34;43.90;;;21.88;;
5987;SDS011;3021;51.000;6.980;2023-05-10T05:05:59;52.05;;;22.83;;
5987;SDS011;3021;51.000;6.980;2023-05-10T05:08:25;44.65;;;21.55;;
5987;SDS011;3021;51.000;6.980;2023-05-10T05:10:50;45.80;;;20.45;;
5987;SDS011;3021;51.000;6.980;2023-05-10T05:13:16;39.75;;;22.10;;
5987;SDS011;3021;51.000;6.980;2023-05-10T05:15:41;44.30;;;21.35;;
5987;SDS011;3021;51.000;6.980;2023-05-10T05:18:06;37.55;;;19.48;;
5987;SDS011;3021;51.000;6.980;2023-05-10T05:20:35;35.80;;;20.52;;
5987;SDS011;3021;51.000;6.980;2023-05-10T05:23:00;42.55;;;20.70;;
5987;SDS011;3021;51.000;6.980;2023-05-10T05:25:26;38.17;;;19.90;;
5987;SDS011;3021;51.000;6.980;2023-05-10T05:27:51;42.20;;;20.73;;
5987;SDS011;3021;51.000;6.980;2023-05-10T05:30:17;33.38;;;19.50;;
5987;SDS011;3021;51.000;6.980;2023-05-10T05:32:42;34.80;;;18.63;;
5987;SDS011;3021;51.000;6.980;2023-05-10T05:35:07;38.67;;;19.60;;
5987;SDS011;3021;51.000;6.980;2023-05-10T05:37:33;35.70;;;17.90;;
5987;SDS011;3021;51.000;6.980;2023-05-10T05:39:58;35.97;;;19.42;;
5987;SDS011;3021;51.000;6.980;2023-05-10T05:42:26;32.97;;;18.23;;
5987;SDS011;3021;51.000;6.980;2023-05-10T05:44:51;35.28;;;17.88;;
5987;SDS011;3021;51.000;6.980;2023-05-10T05:47:16;32.78;;;18.17;;
5987;SDS011;3021;51.000;6.980;2023-05-10T05:49:42;30.65;;;17.15;;
5987;SDS011;3021;51.000;6.980;2023-05-10T05:52:10;34.00;;;17.23;;
5987;SDS011;3021;51.000;6.980;2023-05-10T05:54:36;34.80;;;17.92;;
5987;SDS011;3021;51.000;6.980;2023-05-10T05:57:01;29.98;;;15.88;;
5987;SDS011;3021;51.000;6.980;2023-05-10T05:59:26;37.40;;;19.15;;
5987;SDS011;3021;51.000;6.980;2023-05-10T06:01:52;34.10;;;17.25;;
5987;SDS011;3021;51.000;6.980;2023-05-10T06:04:17;35.35;;;17.42;;
5987;SDS011;3021;51.000;6.980;2023-05-10T06:06:43;30.85;;;16.52;;
5987;SDS011;3021;51.000;6.980;2023-05-10T06:09:09;29.83;;;16.20;;
5987;SDS011;3021;51.000;6.980;2023-05-10T06:11:35;33.25;;;16.02;;
5987;SDS011;3021;51.000;6.980;2023-05-10T06:14:01;30.15;;;14.57;;
5987;SDS011;3021;51.000;6.980;2023-05-10T06:16:26;24.80;;;14.38;;
5987;SDS011;3021;51.000;6.980;2023-05-10T06:18:52;27.08;;;14.55;;
5987;SDS011;3021;51.000;6.980;2023-05-10T06:21:17;30.30;;;14.98;;
5987;SDS011;3021;51.000;6.980;2023-05-10T06:23:42;29.67;;;15.13;;
5987;SDS011;3021;51.000;6.980;2023-05-10T06:26:08;27.58;;;14.88;;
5987;SDS011;3021;51.000;6.980;2023-05-10T06:28:34;30.15;;;14.23;;
5987;SDS011;3021;51.000;6.980;2023-05-10T06:31:00;28.42;;;14.30;;
5987;SDS011;3021;51.000;6.980;2023-05-10T06:33:25;29.15;;;14.10;;
5987;SDS011;3021;51.000;6.980;2023-05-10T06:35:51;25.02;;;14.10;;
5987;SDS011;3021;51.000;6.980;2023-05-10T06:38:16;26.85;;;14.43;;
5987;SDS011;3021;51.000;6.980;2023-05-10T06:40:42;29.42;;;14.25;;
5987;SDS011;3021;51.000;6.980;2023-05-10T06:43:08;32.03;;;14.93;;
5987;SDS011;3021;51.000;6.980;2023-05-10T06:45:34;38.97;;;15.13;;
5987;SDS011;3021;51.000;6.980;2023-05-10T06:47:59;25.98;;;14.02;;
5987;SDS011;3021;51.000;6.980;2023-05-10T06:50:24;38.60;;;15.73;;
5987;SDS011;3021;51.000;6.980;2023-05-10T06:52:50;35.72;;;16.13;;
5987;SDS011;3021;51.000;6.980;2023-05-10T06:55:15;35.50;;;16.52;;
5987;SDS011;3021;51.000;6.980;2023-05-10T06:57:40;30.63;;;17.13;;
5987;SDS011;3021;51.000;6.980;2023-05-10T07:00:06;33.22;;;16.42;;
5987;SDS011;3021;51.000;6.980;2023-05-10T07:02:32;29.83;;;15.93;;
5987;SDS011;3021;51.000;6.980;2023-05-10T07:04:58;37.28;;;16.63;;
5987;SDS011;3021;51.000;6.980;2023-05-10T07:07:23;35.45;;;18.92;;
5987;SDS011;3021;51.000;6.980;2023-05-10T07:09:48;31.48;;;16.95;;
5987;SDS011;3021;51.000;6.980;2023-05-10T07:12:14;40.53;;;18.35;;
5987;SDS011;3021;51.000;6.980;2023-05-10T07:14:40;39.03;;;18.48;;
5987;SDS011;3021;51.000;6.980;2023-05-10T07:17:05;44.97;;;18.80;;
5987;SDS011;3021;51.000;6.980;2023-05-10T07:19:31;39.30;;;18.80;;
5987;SDS011;3021;51.000;6.980;2023-05-10T07:21:57;34.17;;;17.50;;
5987;SDS011;3021;51.000;6.980;2023-05-10T07:24:23;40.50;;;18.15;;
5987;SDS011;3021;51.000;6.980;2023-05-10T07:26:49;35.47;;;18.00;;
5987;SDS011;3021;51.000;6.980;2023-05-10T07:29:14;35.80;;;18.35;;
5987;SDS011;3021;51.000;6.980;2023-05-10T07:31:40;33.90;;;16.90;;
5987;SDS011;3021;51.000;6.980;2023-05-10T07:34:07;35.38;;;18.13;;
5987;SDS011;3021;51.000;6.980;2023-05-10T07:36:33;37.38;;;17.88;;
5987;SDS011;3021;51.000;6.980;2023-05-10T07:38:59;28.05;;;15.00;;
5987;SDS011;3021;51.000;6.980;2023-05-10T07:41:24;30.77;;;16.52;;
5987;SDS011;3021;51.000;6.980;2023-05-10T07:43:50;27.42;;;15.75;;
5987;SDS011;3021;51.000;6.980;2023-05-10T07:46:15;25.30;;;13.45;;
5987;SDS011;3021;51.000;6.980;2023-05-10T07:48:41;30.02;;;14.95;;
5987;SDS011;3021;51.000;6.980;2023-05-10T07:51:06;25.02;;;15.30;;
5987;SDS011;3021;51.000;6.980;2023-05-10T07:53:34;22.08;;;13.80;;
5987;SDS011;3021;51.000;6.980;2023-05-10T07:56:19;27.10;;;14.88;;
5987;SDS011;3021;51.000;6.980;2023-05-10T07:58:45;25.67;;;13.98;;
5987;SDS011;3021;51.000;6.980;2023-05-10T08:01:10;28.65;;;15.30;;
5987;SDS011;3021;51.000;6.980;2023-05-10T08:03:36;24.85;;;14.55;;
5987;SDS011;3021;51.000;6.980;2023-05-10T08:06:01;23.88;;;13.98;;
5987;SDS011;3021;51.000;6.980;2023-05-10T08:08:27;25.10;;;14.32;;
5987;SDS011;3021;51.000;6.980;2023-05-10T08:10:52;27.10;;;13.95;;
5987;SDS011;3021;51.000;6.980;2023-05-10T08:13:17;25.23;;;14.70;;
5987;SDS011;3021;51.000;6.980;2023-05-10T08:15:43;28.20;;;15.43;;
5987;SDS011;3021;51.000;6.980;2023-05-10T08:18:08;24.58;;;14.98;;
5987;SDS011;3021;51.000;6.980;2023-05-10T08:20:33;27.38;;;14.18;;
5987;SDS011;3021;51.000;6.980;2023-05-10T08:22:58;26.30;;;14.25;;
5987;SDS011;3021;51.000;6.980;2023-05-10T08:25:24;28.20;;;13.95;;
5987;SDS011;3021;51.000;6.980;2023-05-10T08:27:49;29.42;;;13.57;;
5987;SDS011;3021;51.000;6.980;2023-05-10T08:30:15;27.92;;;14.30;;
5987;SDS011;3021;51.000;6.980;2023-05-10T08:32:41;28.75;;;14.07;;
5987;SDS011;3021;51.000;6.980;2023-05-10T08:35:06;29.77;;;14.57;;
5987;SDS011;3021;51.000;6.980;2023-05-10T08:37:31;25.35;;;13.63;;
5987;SDS011;3021;51.000;6.980;2023-05-10T08:39:58;23.85;;;13.30;;
5987;SDS011;3021;51.000;6.980;2023-05-10T08:42:23;25.92;;;13.30;;
5987;SDS011;3021;51.000;6.980;2023-05-10T08:44:53;21.65;;;13.20;;
5987;SDS011;3021;51.000;6.980;2023-05-10T08:47:19;20.73;;;11.93;;
5987;SDS011;3021;51.000;6.980;2023-05-10T08:49:46;25.90;;;13.88;;
5987;SDS011;3021;51.000;6.980;2023-05-10T08:52:15;22.58;;;13.35;;
5987;SDS011;3021;51.000;6.980;2023-05-10T08:54:42;23.98;;;13.73;;
5987;SDS011;3021;51.000;6.980;2023-05-10T08:57:08;25.73;;;14.07;;
5987;SDS011;3021;51.000;6.980;2023-05-10T08:59:35;26.65;;;14.13;;
5987;SDS011;3021;51.000;6.980;2023-05-10T09:02:00;26.40;;;13.70;;
5987;SDS011;3021;51.000;6.980;2023-05-10T09:04:27;25.08;;;14.43;;
5987;SDS011;3021;51.000;6.980;2023-05-10T09:06:54;26.85;;;15.30;;
5987;SDS011;3021;51.000;6.980;2023-05-10T09:09:19;25.70;;;14.73;;
5987;SDS011;3021;51.000;6.980;2023-05-10T09:11:45;24.95;;;14.10;;
5987;SDS011;3021;51.000;6.980;2023-05-10T09:14:11;26.17;;;15.20;;
5987;SDS011;3021;51.000;6.980;2023-05-10T09:16:38;35.25;;;16.15;;
5987;SDS011;3021;51.000;6.980;2023-05-10T09:19:03;28.95;;;15.77;;
5987;SDS011;3021;51.000;6.980;2023-05-10T09:21:28;27.30;;;15.20;;
5987;SDS011;3021;51.000;6.980;2023-05-10T09:23:55;31.40;;;16.02;;
5987;SDS011;3021;51.000;6.980;2023-05-10T09:26:24;35.85;;;18.02;;
5987;SDS011;3021;51.000;6.980;2023-05-10T09:28:53;37.22;;;18.65;;
5987;SDS011;3021;51.000;6.980;2023-05-10T09:31:21;37.45;;;19.48;;
5987;SDS011;3021;51.000;6.980;2023-05-10T09:33:47;40.53;;;19.95;;
5987;SDS011;3021;51.000;6.980;2023-05-10T09:36:13;35.78;;;19.33;;
5987;SDS011;3021;51.000;6.980;2023-05-10T09:38:46;39.88;;;20.00;;
5987;SDS011;3021;51.000;6.980;2023-05-10T09:41:16;41.55;;;20.58;;
5987;SDS011;3021;51.000;6.980;2023-05-10T09:43:43;32.53;;;18.65;;
5987;SDS011;3021;51.000;6.980;2023-05-10T09:46:08;39.42;;;19.60;;
5987;SDS011;3021;51.000;6.980;2023-05-10T09:48:39;38.13;;;19.95;;
5987;SDS011;3021;51.000;6.980;2023-05-10T09:53:36;38.90;;;19.73;;
5987;SDS011;3021;51.000;6.980;2023-05-10T09:56:01;32.22;;;18.17;;
5987;SDS011;3021;51.000;6.980;2023-05-10T09:58:26;34.30;;;18.40;;
5987;SDS011;3021;51.000;6.980;2023-05-10T10:00:52;28.33;;;16.55;;
5987;SDS011;3021;51.000;6.980;2023-05-10T10:03:19;26.23;;;15.60;;
5987;SDS011;3021;51.000;6.980;2023-05-10T10:05:46;26.38;;;14.70;;
5987;SDS011;3021;51.000;6.980;2023-05-10T10:08:13;24.95;;;15.65;;
5987;SDS011;3021;51.000;6.980;2023-05-10T10:10:39;30.10;;;15.52;;
5987;SDS011;3021;51.000;6.980;2023-05-10T10:13:10;24.25;;;14.38;;
5987;SDS011;3021;51.000;6.980;2023-05-10T10:15:35;23.10;;;14.80;;
5987;SDS011;3021;51.000;6.980;2023-05-10T10:18:01;24.55;;;14.65;;
5987;SDS011;3021;51.000;6.980;2023-05-10T10:20:28;23.10;;;13.40;;
5987;SDS011;3021;51.000;6.980;2023-05-10T10:22:53;20.75;;;12.18;;
5987;SDS011;3021;51.000;6.980;2023-05-10T10:25:19;18.98;;;11.95;;
5987;SDS011;3021;51.000;6.980;2023-05-10T10:35:51;16.80;;;11.00;;
5987;SDS011;3021;51.000;6.980;2023-05-10T10:38:17;13.85;;;9.27;;
5987;SDS011;3021;51.000;6.980;2023-05-10T10:40:43;14.77;;;9.73;;
5987;SDS011;3021;51.000;6.980;2023-05-10T10:43:20;16.10;;;9.90;;
5987;SDS011;3021;51.000;6.980;2023-05-10T10:48:39;15.82;;;9.90;;
5987;SDS011;3021;51.000;6.980;2023-05-10T10:51:05;14.43;;;9.75;;
5987;SDS011;3021;51.000;6.980;2023-05-10T10:53:31;17.30;;;9.10;;
5987;SDS011;3021;51.000;6.980;2023-05-10T10:56:30;12.00;;;8.30;;
5987;SDS011;3021;51.000;6.980;2023-05-10T10:58:49;13.23;;;8.73;;
5987;SDS011;3021;51.000;6.980;2023-05-10T11:01:18;14.93;;;9.48;;
5987;SDS011;3021;51.000;6.980;2023-05-10T11:06:31;11.45;;;8.35;;
5987;SDS011;3021;51.000;6.980;2023-05-10T11:08:58;14.57;;;8.13;;
5987;SDS011;3021;51.000;6.980;2023-05-10T11:11:24;15.88;;;9.05;;
5987;SDS011;3021;51.000;6.980;2023-05-10T11:13:50;12.15;;;7.32;;
5987;SDS011;3021;51.000;6.980;2023-05-10T11:18:58;11.35;;;6.63;;
5987;SDS011;3021;51.000;6.980;2023-05-10T11:21:27;12.23;;;7.80;;
5987;SDS011;3021;51.000;6.980;2023-05-10T11:23:53;9.55;;;7.18;;
5987;SDS011;3021;51.000;6.980;2023-05-10T11:26:21;10.50;;;7.03;;
5987;SDS011;3021;51.000;6.980;2023-05-10T11:28:50;9.57;;;6.55;;
5987;SDS011;3021;51.000;6.980;2023-05-10T11:31:18;11.23;;;6.70;;
5987;SDS011;3021;51.000;6.980;2023-05-10T11:33:48;11.38;;;7.05;;
5987;SDS011;3021;51.000;6.980;2023-05-10T11:36:15;12.25;;;7.18;;
5987;SDS011;3021;51.000;6.980;2023-05-10T11:38:55;9.52;;;5.97;;
5987;SDS011;3021;51.000;6.980;2023-05-10T11:41:21;9.50;;;6.70;;
5987;SDS011;3021;51.000;6.980;2023-05-10T11:43:52;8.85;;;6.35;;
5987;SDS011;3021;51.000;6.980;2023-05-10T11:46:25;10.38;;;5.63;;
5987;SDS011;3021;51.000;6.980;2023-05-10T11:48:53;11.40;;;6.80;;
5987;SDS011;3021;51.000;6.980;2023-05-10T11:51:22;8.27;;;5.80;;
5987;SDS011;3021;51.000;6.980;2023-05-10T11:53:49;10.13;;;6.50;;
5987;SDS011;3021;51.000;6.980;2023-05-10T11:56:17;10.38;;;6.32;;
5987;SDS011;3021;51.000;6.980;2023-05-10T11:58:42;11.38;;;6.00;;
5987;SDS011;3021;51.000;6.980;2023-05-10T12:01:08;9.80;;;6.18;;
5987;SDS011;3021;51.000;6.980;2023-05-10T12:03:35;8.77;;;5.38;;
5987;SDS011;3021;51.000;6.980;2023-05-10T12:06:01;6.05;;;4.72;;
5987;SDS011;3021;51.000;6.980;2023-05-10T12:08:28;6.32;;;4.10;;
5987;SDS011;3021;51.000;6.980;2023-05-10T12:11:08;6.43;;;3.60;;
5987;SDS011;3021;51.000;6.980;2023-05-10T12:13:38;5.47;;;3.10;;
5987;SDS011;3021;51.000;6.980;2023-05-10T12:16:18;3.45;;;2.90;;
5987;SDS011;3021;51.000;6.980;2023-05-10T12:18:44;3.60;;;2.78;;
5987;SDS011;3021;51.000;6.980;2023-05-10T12:21:13;4.05;;;2.90;;
5987;SDS011;3021;51.000;6.980;2023-05-10T12:23:40;3.95;;;2.85;;
5987;SDS011;3021;51.000;6.980;2023-05-10T12:26:06;3.55;;;2.42;;
5987;SDS011;3021;51.000;6.980;2023-05-10T12:28:34;3.53;;;2.30;;
5987;SDS011;3021;51.000;6.980;2023-05-10T12:31:01;2.28;;;2.05;;
5987;SDS011;3021;51.000;6.980;2023-05-10T12:33:26;2.22;;;1.88;;
5987;SDS011;3021;51.000;6.980;2023-05-10T12:35:52;2.70;;;2.10;;
5987;SDS011;3021;51.000;6.980;2023-05-10T12:41:03;2.47;;;2.13;;
5987;SDS011;3021;51.000;6.980;2023-05-10T12:43:30;1.98;;;1.77;;
5987;SDS011;3021;51.000;6.980;2023-05-10T12:45:56;2.83;;;2.40;;
5987;SDS011;3021;51.000;6.980;2023-05-10T12:48:22;2.58;;;2.30;;
5987;SDS011;3021;51.000;6.980;2023-05-10T12:50:47;3.90;;;2.35;;
5987;SDS011;3021;51.000;6.980;2023-05-10T12:53:14;3.78;;;2.40;;
5987;SDS011;3021;51.000;6.980;2023-05-10T12:55:43;3.72;;;2.30;;
5987;SDS011;3021;51.000;6.980;2023-05-10T12:58:08;2.92;;;2.30;;
5987;SDS011;3021;51.000;6.980;2023-05-10T13:00:34;2.90;;;2.30;;
5987;SDS011;3021;51.000;6.980;2023-05-10T13:03:03;3.38;;;2.17;;
5987;SDS011;3021;51.000;6.980;2023-05-10T13:05:34;2.15;;;1.90;;
5987;SDS011;3021;51.000;6.980;2023-05-10T13:08:00;2.72;;;2.28;;
5987;SDS011;3021;51.000;6.980;2023-05-10T13:10:25;4.25;;;2.90;;
5987;SDS011;3021;51.000;6.980;2023-05-10T13:12:51;4.07;;;2.38;;
5987;SDS011;3021;51.000;6.980;2023-05-10T13:15:17;4.97;;;2.70;;
5987;SDS011;3021;51.000;6.980;2023-05-10T13:17:42;3.33;;;2.40;;
5987;SDS011;3021;51.000;6.980;2023-05-10T13:20:08;2.95;;;2.40;;
5987;SDS011;3021;51.000;6.980;2023-05-10T13:22:34;3.38;;;2.40;;
5987;SDS011;3021;51.000;6.980;2023-05-10T13:25:00;4.00;;;2.30;;
5987;SDS011;3021;51.000;6.980;2023-05-10T13:27:25;2.88;;;2.05;;
5987;SDS011;3021;51.000;6.980;2023-05-10T13:29:51;3.28;;;2.28;;
5987;SDS011;3021;51.000;6.980;2023-05-10T13:32:16;4.43;;;2.95;;
5987;SDS011;3021;51.000;6.980;2023-05-10T13:34:41;2.75;;;2.30;;
5987;SDS011;3021;51.000;6.980;2023-05-10T13:37:07;2.50;;;2.30;;
5987;SDS011;3021;51.000;6.980;2023-05-10T13:39:32;4.63;;;2.63;;
5987;SDS011;3021;51.000;6.980;2023-05-10T13:41:59;2.88;;;2.00;;
5987;SDS011;3021;51.000;6.980;2023-05-10T13:44:24;3.00;;;1.95;;
5987;SDS011;3021;51.000;6.980;2023-05-10T13:46:50;3.30;;;1.63;;
5987;SDS011;3021;51.000;6.980;2023-05-10T13:49:15;3.63;;;2.25;;
5987;SDS011;3021;51.000;6.980;2023-05-10T13:51:40;3.30;;;2.15;;
5987;SDS011;3021;51.000;6.980;2023-05-10T13:54:06;2.78;;;2.08;;
5987;SDS011;3021;51.000;6.980;2023-05-10T13:56:31;2.60;;;1.90;;
5987;SDS011;3021;51.000;6.980;2023-05-10T13:58:56;3.38;;;2.30;;
5987;SDS011;3021;51.000;6.980;2023-05-10T14:01:23;3.10;;;2.20;;
5987;SDS011;3021;51.000;6.980;2023-05-10T14:03:48;4.57;;;2.05;;
5987;SDS011;3021;51.000;6.980;2023-05-10T14:06:14;3.10;;;2.60;;
5987;SDS011;3021;51.000;6.980;2023-05-10T14:08:39;2.75;;;2.20;;
5987;SDS011;3021;51.000;6.980;2023-05-10T14:11:05;3.08;;;2.00;;
5987;SDS011;3021;51.000;6.980;2023-05-10T14:13:30;2.40;;;1.90;;
5987;SDS011;3021;51.000;6.980;2023-05-10T14:15:55;3.72;;;1.80;;
5987;SDS011;3021;51.000;6.980;2023-05-10T14:18:21;2.55;;;2.05;;
5987;SDS011;3021;51.000;6.980;2023-05-10T14:20:46;3.20;;;2.08;;
5987;SDS011;3021;51.000;6.980;2023-05-10T14:23:12;4.63;;;2.05;;
5987;SDS011;3021;51.000;6.980;2023-05-10T14:25:37;2.90;;;2.08;;
5987;SDS011;3021;51.000;6.980;2023-05-10T14:28:04;2.67;;;1.88;;
5987;SDS011;3021;51.000;6.980;2023-05-10T14:30:31;5.65;;;2.17;;
5987;SDS011;3021;51.000;6.980;2023-05-10T14:32:56;2.53;;;2.00;;
5987;SDS011;3021;51.000;6.980;2023-05-10T14:35:23;2.75;;;1.55;;
5987;SDS011;3021;51.000;6.980;2023-05-10T14:37:48;3.70;;;1.63;;
5987;SDS011;3021;51.000;6.980;2023-05-10T14:40:14;2.00;;;1.60;;
5987;SDS011;3021;51.000;6.980;2023-05-10T14:42:40;3.30;;;1.70;;
5987;SDS011;3021;51.000;6.980;2023-05-10T14:45:06;2.97;;;1.90;;
5987;SDS011;3021;51.000;6.980;2023-05-10T14:47:32;4.40;;;2.60;;
5987;SDS011;3021;51.000;6.980;2023-05-10T14:49:57;2.83;;;2.25;;
5987;SDS011;3021;51.000;6.980;2023-05-10T14:52:23;3.08;;;2.15;;
5987;SDS011;3021;51.000;6.980;2023-05-10T14:54:48;5.57;;;2.88;;
5987;SDS011;3021;51.000;6.980;2023-05-10T14:57:13;7.40;;;4.95;;
5987;SDS011;3021;51.000;6.980;2023-05-10T14:59:39;9.95;;;7.20;;
5987;SDS011;3021;51.000;6.980;2023-05-10T15:02:04;12.32;;;8.07;;
5987;SDS011;3021;51.000;6.980;2023-05-10T15:04:30;11.55;;;9.00;;
5987;SDS011;3021;51.000;6.980;2023-05-10T15:06:55;13.10;;;9.20;;
5987;SDS011;3021;51.000;6.980;2023-05-10T15:09:24;13.60;;;8.82;;
5987;SDS011;3021;51.000;6.980;2023-05-10T15:11:50;17.23;;;8.98;;
5987;SDS011;3021;51.000;6.980;2023-05-10T15:14:15;13.00;;;9.32;;
5987;SDS011;3021;51.000;6.980;2023-05-10T15:16:40;13.68;;;8.55;;
5987;SDS011;3021;51.000;6.980;2023-05-10T15:19:06;15.45;;;8.82;;
5987;SDS011;3021;51.000;6.980;2023-05-10T15:21:31;12.63;;;8.60;;
5987;SDS011;3021;51.000;6.980;2023-05-10T15:24:03;11.20;;;7.25;;
5987;SDS011;3021;51.000;6.980;2023-05-10T15:26:29;17.42;;;8.68;;
5987;SDS011;3021;51.000;6.980;2023-05-10T15:28:54;11.77;;;7.38;;
5987;SDS011;3021;51.000;6.980;2023-05-10T15:31:20;11.45;;;7.32;;
5987;SDS011;3021;51.000;6.980;2023-05-10T15:33:45;12.48;;;7.55;;